Big Bear Station Historical Data
Daily Summary for January 21, 2017 Units:  English    Metric   Both
« Previous Day
Next Day »
Daily Weekly Monthly Yearly Custom
  High: Low: Average:
Temperature: 36.9 °F 21.6 °F 26.3 °F
Dew Point: 28.7 °F 19.2 °F 23.6 °F
Humidity: 97 % 71 % 89 %
Wind Speed: 0.0 mph 0.0 mph 0 mph
Wind Gust: -999.0 mph - -
Wind:- - North
Pressure: 23.41 in 22.92 in -
Precipitation: 0.01 in    
Historical Graphs
 
 
Tabular Data for January 21, 2017
Time Temperature Dew Point Pressure Wind Wind Speed Wind Gust Humidity Rainfall Rate (Hourly)
00:09 26.6 °F 25.6 °F 22.92 in Calm   -999.0 mph 96 % 0 in
00:24 26.1 °F 24.9 °F 22.92 in Calm   -999.0 mph 95 % 0 in
00:39 25.7 °F 24.2 °F 22.93 in Calm   -999.0 mph 94 % 0 in
00:55 25.3 °F 23.8 °F 22.93 in Calm   -999.0 mph 94 % 0 in
01:10 25.2 °F 24.0 °F 22.93 in Calm   -999.0 mph 95 % 0 in
01:25 24.8 °F 23.8 °F 22.93 in Calm   -999.0 mph 96 % 0 in
01:40 24.8 °F 24.1 °F 22.94 in Calm   -999.0 mph 97 % 0 in
01:55 24.6 °F 23.9 °F 22.96 in Calm   -999.0 mph 97 % 0 in
02:11 24.4 °F 23.7 °F 22.96 in Calm   -999.0 mph 97 % 0 in
02:26 24.4 °F 23.7 °F 22.96 in Calm   -999.0 mph 97 % 0 in
02:41 24.4 °F 23.7 °F 22.97 in Calm   -999.0 mph 97 % 0 in
02:56 24.3 °F 23.6 °F 22.97 in Calm   -999.0 mph 97 % 0 in
03:12 24.1 °F 23.4 °F 22.97 in Calm   -999.0 mph 97 % 0 in
03:27 23.9 °F 22.9 °F 22.98 in Calm   -999.0 mph 96 % 0 in
03:42 23.9 °F 22.9 °F 22.99 in Calm   -999.0 mph 96 % 0 in
03:57 23.7 °F 22.5 °F 22.99 in Calm   -999.0 mph 95 % 0 in
04:12 23.5 °F 22.3 °F 23.00 in Calm   -999.0 mph 95 % 0 in
04:28 23.5 °F 21.5 °F 23.01 in Calm   -999.0 mph 92 % 0 in
04:43 23.4 °F 21.4 °F 23.01 in Calm   -999.0 mph 92 % 0 in
04:58 23.5 °F 21.3 °F 23.02 in Calm   -999.0 mph 91 % 0 in
05:13 23.5 °F 21.3 °F 23.02 in Calm   -999.0 mph 91 % 0 in
05:28 23.2 °F 21.2 °F 23.03 in Calm   -999.0 mph 92 % 0 in
05:44 23.2 °F 21.5 °F 23.04 in Calm   -999.0 mph 93 % 0 in
05:59 23.0 °F 21.0 °F 23.05 in Calm   -999.0 mph 92 % 0 in
06:14 22.8 °F 21.1 °F 23.06 in Calm   -999.0 mph 93 % 0 in
06:29 22.5 °F 20.5 °F 23.08 in Calm   -999.0 mph 92 % 0 in
06:44 22.1 °F 20.1 °F 23.09 in Calm   -999.0 mph 92 % 0 in
07:00 21.7 °F 19.7 °F 23.09 in Calm   -999.0 mph 92 % 0 in
07:15 21.6 °F 19.6 °F 23.11 in Calm   -999.0 mph 92 % 0 in
07:30 21.9 °F 19.2 °F 23.12 in Calm   -999.0 mph 89 % 0 in
07:45 22.1 °F 19.4 °F 23.12 in Calm   -999.0 mph 89 % 0 in
08:01 22.5 °F 19.7 °F 23.12 in Calm   -999.0 mph 89 % 0 in
08:16 23.2 °F 21.0 °F 23.13 in Calm   -999.0 mph 91 % 0 in
08:31 24.1 °F 21.1 °F 23.14 in Calm   -999.0 mph 88 % 0 in
08:46 25.0 °F 22.2 °F 23.15 in Calm   -999.0 mph 89 % 0 in
09:01 25.2 °F 21.9 °F 23.16 in Calm   -999.0 mph 87 % 0 in
09:17 25.0 °F 21.9 °F 23.17 in Calm   -999.0 mph 88 % 0 in
09:32 25.5 °F 21.6 °F 23.19 in Calm   -999.0 mph 85 % 0 in
09:47 25.7 °F 22.4 °F 23.20 in Calm   -999.0 mph 87 % 0 in
10:02 25.9 °F 22.3 °F 23.19 in Calm   -999.0 mph 86 % 0 in
10:17 26.6 °F 23.0 °F 23.22 in Calm   -999.0 mph 86 % 0 in
10:33 27.3 °F 22.2 °F 23.23 in Calm   -999.0 mph 81 % 0 in
10:48 27.9 °F 23.1 °F 23.23 in Calm   -999.0 mph 82 % 0 in
11:03 28.4 °F 23.6 °F 23.22 in Calm   -999.0 mph 82 % 0 in
11:18 28.9 °F 23.5 °F 23.23 in Calm   -999.0 mph 80 % 0 in
11:33 30.4 °F 25.6 °F 23.23 in Calm   -999.0 mph 82 % 0 in
11:49 31.8 °F 26.6 °F 23.23 in Calm   -999.0 mph 81 % 0 in
12:04 34.2 °F 28.1 °F 23.24 in Calm   -999.0 mph 78 % 0 in
12:19 34.9 °F 28.1 °F 23.25 in Calm   -999.0 mph 76 % 0 in
12:34 36.9 °F 28.7 °F 23.25 in Calm   -999.0 mph 72 % 0 in
12:49 35.4 °F 26.9 °F 23.25 in Calm   -999.0 mph 71 % 0 in
13:05 32.9 °F 27.4 °F 23.25 in Calm   -999.0 mph 80 % 0 in
13:20 34.0 °F 27.5 °F 23.25 in Calm   -999.0 mph 77 % 0 in
13:35 32.0 °F 25.3 °F 23.26 in Calm   -999.0 mph 76 % 0 in
13:50 30.7 °F 25.0 °F 23.27 in Calm   -999.0 mph 79 % 0 in
14:05 30.2 °F 25.4 °F 23.27 in Calm   -999.0 mph 82 % 0 in
14:21 29.5 °F 24.7 °F 23.27 in Calm   -999.0 mph 82 % 0 in
14:36 29.1 °F 24.9 °F 23.28 in Calm   -999.0 mph 84 % 0 in
14:51 29.1 °F 24.6 °F 23.28 in Calm   -999.0 mph 83 % 0 in
15:06 28.9 °F 24.7 °F 23.30 in Calm   -999.0 mph 84 % 0 in
15:22 29.8 °F 25.3 °F 23.30 in Calm   -999.0 mph 83 % 0 in
15:37 30.0 °F 25.5 °F 23.29 in Calm   -999.0 mph 83 % 0 in
15:52 30.0 °F 25.5 °F 23.31 in Calm   -999.0 mph 83 % 0 in
16:07 29.5 °F 25.5 °F 23.31 in Calm   -999.0 mph 85 % 0 in
16:22 28.9 °F 25.2 °F 23.32 in Calm   -999.0 mph 86 % 0 in
16:38 27.9 °F 24.5 °F 23.31 in Calm   -999.0 mph 87 % 0 in
16:53 27.1 °F 24.3 °F 23.32 in Calm   -999.0 mph 89 % 0 in
17:08 26.4 °F 24.1 °F 23.33 in Calm   -999.0 mph 91 % 0 in
17:23 26.1 °F 24.1 °F 23.33 in Calm   -999.0 mph 92 % 0 in
17:38 25.7 °F 24.0 °F 23.32 in Calm   -999.0 mph 93 % 0 in
17:54 25.0 °F 23.3 °F 23.33 in Calm   -999.0 mph 93 % 0 in
18:09 25.0 °F 23.3 °F 23.34 in Calm   -999.0 mph 93 % 0 in
18:24 24.8 °F 23.3 °F 23.35 in Calm   -999.0 mph 94 % 0 in
18:39 24.8 °F 23.3 °F 23.35 in Calm   -999.0 mph 94 % 0 in
18:54 24.6 °F 23.1 °F 23.35 in Calm   -999.0 mph 94 % 0 in
19:10 24.4 °F 22.9 °F 23.36 in Calm   -999.0 mph 94 % 0 in
19:25 24.1 °F 22.6 °F 23.37 in Calm   -999.0 mph 94 % 0 in
19:40 24.1 °F 22.6 °F 23.37 in Calm   -999.0 mph 94 % 0 in
19:56 24.4 °F 23.2 °F 23.38 in Calm   -999.0 mph 95 % 0 in
20:11 24.8 °F 23.1 °F 23.38 in Calm   -999.0 mph 93 % 0 in
20:26 25.0 °F 23.3 °F 23.38 in Calm   -999.0 mph 93 % 0 in
20:42 25.0 °F 23.5 °F 23.38 in Calm   -999.0 mph 94 % 0 in
20:57 25.5 °F 23.5 °F 23.39 in Calm   -999.0 mph 92 % 0 in
21:12 26.8 °F 23.7 °F 23.40 in Calm   -999.0 mph 88 % 0 in
21:27 27.1 °F 24.0 °F 23.40 in Calm   -999.0 mph 88 % 0 in
21:42 26.6 °F 24.1 °F 23.39 in Calm   -999.0 mph 90 % 0 in
21:58 26.8 °F 24.3 °F 23.40 in Calm   -999.0 mph 90 % 0 in
22:13 26.1 °F 23.6 °F 23.37 in Calm   -999.0 mph 90 % 0 in
22:29 26.4 °F 23.9 °F 23.39 in Calm   -999.0 mph 90 % 0 in
22:44 26.8 °F 24.5 °F 23.40 in Calm   -999.0 mph 91 % 0 in
22:59 26.8 °F 24.8 °F 23.41 in Calm   -999.0 mph 92 % 0 in
23:14 26.8 °F 25.0 °F 23.39 in Calm   -999.0 mph 93 % 0 in
23:29 27.0 °F 25.8 °F 23.40 in Calm   -999.0 mph 95 % 0 in
23:45 27.1 °F 26.4 °F 23.40 in Calm   -999.0 mph 97 % 0 in
Big Bear CA Weather
Compliments of Weather Underground - 1.5 mb